Time;durP1;ratioP1;P1;durP2;ratioP2;P2;SDS_P1;SDS_P2;PMS_P1;PMS_P2;Temp;Humidity;BMP_temperature;BMP_pressure;BME280_temperature;BME280_humidity;BME280_pressure;Samples;Min_cycle;Max_cycle;Signal;HPM_P1;HPM_P2
2021/04/08 00:01:37;;;;;;;3.13;2.83;;;3.60;1.00;;;;;;5069358;28;20858;-68
2021/04/08 00:04:03;;;;;;;4.00;2.93;;;3.70;1.00;;;;;;5051298;28;20262;-66
2021/04/08 00:06:28;;;;;;;3.67;3.30;;;3.60;1.00;;;;;;5070947;28;20635;-66
2021/04/08 00:08:54;;;;;;;4.97;3.07;;;3.50;1.00;;;;;;5068586;28;20963;-66
2021/04/08 00:11:19;;;;;;;5.70;3.50;;;3.40;1.00;;;;;;5067834;28;20255;-66
2021/04/08 00:13:45;;;;;;;4.30;3.50;;;3.30;1.00;;;;;;5068798;28;20584;-66
2021/04/08 00:16:10;;;;;;;3.73;3.20;;;3.10;12.10;;;;;;5068305;28;20286;-65
2021/04/08 00:18:36;;;;;;;4.03;2.60;;;3.00;21.10;;;;;;5068360;28;20204;-66
2021/04/08 00:21:02;;;;;;;5.20;3.40;;;2.90;29.50;;;;;;5066084;28;20181;-67
2021/04/08 00:23:28;;;;;;;7.27;3.60;;;2.80;40.50;;;;;;5068724;28;20193;-66
2021/04/08 00:25:55;;;;;;;3.30;3.00;;;2.80;49.30;;;;;;5069663;28;20438;-66
2021/04/08 00:28:21;;;;;;;4.78;3.38;;;2.70;57.60;;;;;;5067225;28;20188;-66
2021/04/08 00:30:47;;;;;;;5.10;3.50;;;2.80;77.10;;;;;;5069523;28;20184;-66
2021/04/08 00:33:14;;;;;;;4.80;3.33;;;2.70;75.80;;;;;;5068036;28;20200;-67
2021/04/08 00:35:41;;;;;;;5.32;3.55;;;2.70;85.40;;;;;;5068853;28;20189;-67
2021/04/08 00:38:10;;;;;;;8.98;4.15;;;2.70;90.00;;;;;;5069856;28;20255;-67
2021/04/08 00:40:36;;;;;;;5.90;4.43;;;2.80;85.00;;;;;;5068047;28;20192;-66
2021/04/08 00:43:02;;;;;;;7.70;5.50;;;2.80;67.00;;;;;;5067228;28;20181;-67
2021/04/08 00:45:28;;;;;;;8.18;4.93;;;2.80;66.90;;;;;;5068753;28;20196;-67
2021/04/08 00:47:54;;;;;;;7.97;5.23;;;2.80;74.00;;;;;;5067246;28;20183;-67
2021/04/08 00:50:20;;;;;;;7.30;4.53;;;2.90;72.00;;;;;;5068823;28;20454;-68
2021/04/08 00:52:54;;;;;;;10.15;5.75;;;2.90;60.90;;;;;;5068392;28;20189;-67
2021/04/08 00:55:22;;;;;;;6.60;5.60;;;2.90;49.50;;;;;;5069147;28;20549;-67
2021/04/08 00:57:48;;;;;;;7.50;5.05;;;2.90;51.00;;;;;;5068803;28;20279;-68
2021/04/08 01:00:14;;;;;;;8.77;5.40;;;3.00;38.80;;;;;;5067743;28;20279;-66
2021/04/08 01:02:40;;;;;;;7.55;4.95;;;3.00;35.60;;;;;;5069043;28;20191;-65
2021/04/08 01:05:06;;;;;;;8.27;4.90;;;3.00;42.20;;;;;;5067972;28;20184;-66
2021/04/08 01:07:33;;;;;;;6.97;5.00;;;3.00;32.10;;;;;;5062936;28;20253;-67
2021/04/08 01:10:00;;;;;;;6.50;4.97;;;3.00;24.90;;;;;;5067585;28;20204;-67
2021/04/08 01:12:26;;;;;;;8.90;4.80;;;3.00;26.80;;;;;;5065969;28;20248;-67
2021/04/08 01:14:51;;;;;;;7.80;6.00;;;3.00;23.20;;;;;;5050985;28;20223;-67
2021/04/08 01:17:33;;;;;;;6.97;4.90;;;3.00;19.70;;;;;;5067479;28;20185;-67
2021/04/08 01:20:29;;;;;;;7.07;5.10;;;3.00;9.70;;;;;;5062382;28;20466;-67
2021/04/08 01:22:57;;;;;;;8.25;5.53;;;3.00;10.30;;;;;;5072202;28;20273;-67
2021/04/08 01:25:59;;;;;;;8.38;6.47;;;3.00;10.60;;;;;;5071210;28;20196;-67
2021/04/08 01:28:40;;;;;;;7.50;5.53;;;3.00;10.40;;;;;;5074249;28;20187;-68
2021/04/08 01:31:08;;;;;;;8.00;5.50;;;3.00;12.70;;;;;;5067923;28;20188;-67
2021/04/08 01:33:40;;;;;;;9.10;6.38;;;3.00;5.40;;;;;;5041338;28;20235;-67
2021/04/08 01:36:09;;;;;;;12.32;6.60;;;2.90;16.20;;;;;;5069011;28;20272;-67
2021/04/08 01:38:55;;;;;;;9.38;6.55;;;2.90;26.20;;;;;;5068449;28;20254;-67
2021/04/08 01:41:23;;;;;;;8.00;6.13;;;2.80;39.90;;;;;;5068674;28;20184;-67
2021/04/08 01:43:51;;;;;;;7.53;5.30;;;2.80;35.50;;;;;;5068265;28;20987;-67
2021/04/08 01:46:20;;;;;;;7.55;5.35;;;2.80;40.50;;;;;;5068122;28;20820;-68
2021/04/08 01:48:50;;;;;;;7.35;5.60;;;2.80;56.30;;;;;;5073416;28;20216;-67
2021/04/08 01:51:16;;;;;;;7.20;4.90;;;2.80;56.70;;;;;;5071707;28;20181;-67
2021/04/08 01:53:47;;;;;;;7.85;5.00;;;2.80;50.40;;;;;;5072097;28;20696;-67
2021/04/08 01:56:16;;;;;;;6.75;4.50;;;2.70;52.90;;;;;;5071160;28;20199;-67
2021/04/08 01:58:43;;;;;;;6.50;4.40;;;2.60;51.10;;;;;;5082702;28;20204;-67
2021/04/08 02:01:12;;;;;;;5.70;4.50;;;2.50;55.60;;;;;;5071150;28;20192;-66
2021/04/08 02:03:41;;;;;;;6.43;4.50;;;2.40;68.70;;;;;;5080160;28;20194;-66
2021/04/08 02:06:11;;;;;;;6.25;4.68;;;2.40;86.50;;;;;;5071999;28;20192;-66
2021/04/08 02:08:39;;;;;;;6.30;4.90;;;2.50;87.70;;;;;;5071419;28;20528;-67
2021/04/08 02:11:09;;;;;;;10.15;6.10;;;2.50;85.70;;;;;;5070682;28;20234;-67
2021/04/08 02:13:35;;;;;;;10.73;5.95;;;2.50;76.80;;;;;;5082325;28;20195;-66
2021/04/08 02:16:01;;;;;;;7.57;5.50;;;2.50;67.00;;;;;;5071381;28;20294;-66
2021/04/08 02:18:29;;;;;;;7.83;5.77;;;2.50;68.40;;;;;;5069011;28;20240;-66
2021/04/08 02:20:58;;;;;;;7.43;5.68;;;2.60;63.40;;;;;;5071022;28;20191;-66
2021/04/08 02:23:25;;;;;;;7.55;5.25;;;2.60;63.80;;;;;;5070670;28;20638;-67
2021/04/08 02:25:52;;;;;;;9.30;5.70;;;2.60;53.00;;;;;;5070151;28;20718;-67
2021/04/08 02:28:19;;;;;;;14.63;5.28;;;2.60;45.80;;;;;;5070397;28;20252;-66
2021/04/08 02:30:48;;;;;;;6.18;4.97;;;2.70;42.50;;;;;;5074998;28;20232;-67
2021/04/08 02:33:24;;;;;;;5.07;4.05;;;2.70;32.00;;;;;;5069135;28;20196;-66
2021/04/08 02:35:51;;;;;;;4.90;4.20;;;2.70;6.20;;;;;;5053469;28;20193;-67
2021/04/08 02:38:22;;;;;;;6.60;4.25;;;2.70;1.00;;;;;;5070186;28;20250;-66
2021/04/08 02:40:48;;;;;;;5.72;4.10;;;2.80;1.00;;;;;;5074058;28;20609;-67
2021/04/08 02:43:14;;;;;;;6.27;4.13;;;2.80;1.00;;;;;;5073542;28;20286;-66
2021/04/08 02:45:40;;;;;;;5.60;4.80;;;2.80;1.00;;;;;;5074200;28;20192;-66
2021/04/08 02:48:10;;;;;;;10.40;4.80;;;2.80;1.00;;;;;;5069479;28;20440;-66
2021/04/08 02:50:37;;;;;;;5.18;4.05;;;2.80;1.00;;;;;;5070260;28;20271;-67
2021/04/08 02:53:22;;;;;;;7.35;4.68;;;2.80;1.00;;;;;;5070664;28;20204;-67
2021/04/08 02:55:56;;;;;;;7.20;4.90;;;2.80;1.00;;;;;;5069572;28;20199;-68
2021/04/08 02:58:24;;;;;;;7.40;5.25;;;2.80;1.00;;;;;;5068374;28;20207;-66
2021/04/08 03:00:58;;;;;;;7.20;4.65;;;2.80;1.00;;;;;;5069871;28;20176;-66
2021/04/08 03:03:30;;;;;;;6.72;4.40;;;2.80;1.00;;;;;;5069744;28;20188;-67
2021/04/08 03:06:00;;;;;;;7.15;3.92;;;2.80;1.00;;;;;;5076279;28;20195;-66
2021/04/08 03:08:27;;;;;;;7.20;4.00;;;2.90;1.00;;;;;;5073561;28;20200;-67
2021/04/08 03:10:53;;;;;;;8.90;5.15;;;3.00;1.00;;;;;;5068440;28;20232;-67
2021/04/08 03:13:21;;;;;;;6.60;3.85;;;2.90;1.00;;;;;;5069363;28;20180;-67
2021/04/08 03:15:47;;;;;;;4.50;3.90;;;2.90;1.00;;;;;;5068103;28;20195;-66
2021/04/08 03:18:18;;;;;;;10.23;3.93;;;2.90;1.00;;;;;;5070992;28;20239;-66
2021/04/08 03:20:50;;;;;;;6.70;4.80;;;2.80;1.00;;;;;;5065862;28;20184;-66
2021/04/08 03:23:16;;;;;;;6.05;3.63;;;2.80;1.00;;;;;;5069422;28;20215;-66
2021/04/08 03:25:43;;;;;;;9.15;4.00;;;2.80;1.00;;;;;;5069633;28;20180;-67
2021/04/08 03:28:12;;;;;;;4.13;3.25;;;2.80;1.00;;;;;;5069238;28;20208;-67
2021/04/08 03:30:40;;;;;;;7.03;4.40;;;2.80;1.00;;;;;;5069031;28;20188;-67
2021/04/08 03:33:06;;;;;;;5.93;4.25;;;2.80;1.00;;;;;;5074716;28;20691;-67
2021/04/08 03:35:34;;;;;;;6.70;4.05;;;2.80;1.00;;;;;;5074640;28;20190;-67
2021/04/08 03:38:00;;;;;;;6.47;3.53;;;2.90;1.00;;;;;;5069787;28;20309;-67
2021/04/08 03:40:25;;;;;;;8.00;4.63;;;2.80;1.00;;;;;;5067567;28;20181;-64
2021/04/08 03:42:52;;;;;;;3.60;3.10;;;2.80;1.00;;;;;;5068329;28;20191;-65
2021/04/08 03:45:18;;;;;;;7.55;4.25;;;2.90;1.00;;;;;;5068738;28;20804;-65
2021/04/08 03:47:45;;;;;;;6.00;3.75;;;2.90;1.00;;;;;;5068967;28;20188;-65
2021/04/08 03:50:12;;;;;;;6.40;4.35;;;2.90;1.00;;;;;;5069193;28;20721;-65
2021/04/08 03:52:39;;;;;;;7.20;4.03;;;2.90;1.00;;;;;;5068743;28;20647;-65
2021/04/08 03:55:10;;;;;;;7.00;4.07;;;2.90;1.00;;;;;;5063231;28;20183;-64
2021/04/08 03:57:38;;;;;;;6.68;4.30;;;2.80;1.00;;;;;;5069525;28;20165;-65
2021/04/08 04:00:09;;;;;;;7.22;4.03;;;2.80;1.00;;;;;;5068131;28;20669;-64
2021/04/08 04:02:42;;;;;;;9.25;5.60;;;2.80;1.00;;;;;;5089708;27;20712;-64
2021/04/08 04:05:09;;;;;;;10.48;4.50;;;2.80;1.00;;;;;;5083923;28;20270;-64
2021/04/08 04:07:36;;;;;;;7.72;4.65;;;2.70;1.00;;;;;;5089229;28;20179;-65
2021/04/08 04:10:04;;;;;;;10.20;4.90;;;2.80;1.00;;;;;;5087691;28;20172;-63
2021/04/08 04:12:30;;;;;;;7.93;5.25;;;2.70;1.00;;;;;;5089539;28;20688;-64
2021/04/08 04:14:59;;;;;;;12.83;5.57;;;2.80;1.00;;;;;;5085257;28;20199;-64
2021/04/08 04:17:31;;;;;;;9.82;5.68;;;2.70;1.00;;;;;;5081211;28;20188;-63
2021/04/08 04:19:58;;;;;;;11.50;6.47;;;2.70;1.00;;;;;;5080025;28;20662;-64
2021/04/08 04:22:24;;;;;;;10.27;6.10;;;2.70;1.00;;;;;;5084675;28;20220;-64
2021/04/08 04:24:50;;;;;;;9.77;6.47;;;2.60;1.00;;;;;;5085731;28;20195;-64
2021/04/08 04:27:17;;;;;;;12.27;6.45;;;2.40;17.70;;;;;;5083459;28;20179;-64
2021/04/08 04:29:42;;;;;;;12.40;7.13;;;2.20;35.00;;;;;;5084873;28;20641;-64
2021/04/08 04:32:09;;;;;;;13.20;8.47;;;2.20;53.50;;;;;;5083144;28;20200;-63
2021/04/08 04:34:35;;;;;;;14.23;8.05;;;2.10;70.90;;;;;;5080958;28;20196;-61
2021/04/08 04:37:01;;;;;;;14.82;8.00;;;2.10;89.10;;;;;;5077398;28;20199;-63
2021/04/08 04:39:26;;;;;;;13.97;7.80;;;2.10;94.30;;;;;;5076442;28;20195;-61
2021/04/08 04:41:52;;;;;;;10.83;7.13;;;2.20;99.90;;;;;;5075343;28;20236;-62
2021/04/08 04:44:17;;;;;;;9.67;6.63;;;2.20;95.70;;;;;;5076072;28;20188;-63
2021/04/08 04:46:43;;;;;;;13.47;7.27;;;2.20;90.90;;;;;;5076636;28;20186;-63
2021/04/08 04:49:08;;;;;;;10.87;7.50;;;2.20;88.30;;;;;;5074881;28;20646;-63
2021/04/08 04:51:34;;;;;;;11.63;6.77;;;2.10;92.40;;;;;;5085361;28;20218;-63
2021/04/08 04:54:00;;;;;;;9.93;6.80;;;2.10;95.20;;;;;;5086187;28;20515;-63
2021/04/08 04:56:25;;;;;;;10.50;6.83;;;2.00;99.90;;;;;;5084664;28;20198;-63
2021/04/08 04:58:51;;;;;;;11.03;7.30;;;2.00;99.90;;;;;;5085978;28;20198;-63
2021/04/08 05:01:16;;;;;;;14.40;6.73;;;2.00;99.90;;;;;;5083534;28;20235;-63
2021/04/08 05:03:42;;;;;;;12.50;7.20;;;2.00;99.90;;;;;;5085912;28;20167;-64
2021/04/08 05:06:07;;;;;;;12.93;7.60;;;2.10;99.90;;;;;;5084995;28;20191;-64
2021/04/08 05:08:33;;;;;;;12.53;8.13;;;2.10;99.90;;;;;;5084902;28;20521;-64
2021/04/08 05:10:58;;;;;;;11.83;7.43;;;2.10;99.90;;;;;;5085352;28;20183;-64
2021/04/08 05:13:24;;;;;;;17.00;7.10;;;2.20;99.90;;;;;;5074974;28;20294;-64
2021/04/08 05:15:49;;;;;;;13.10;7.57;;;2.20;97.40;;;;;;5072005;28;20256;-64
2021/04/08 05:18:15;;;;;;;13.00;7.13;;;2.30;90.80;;;;;;5072251;28;20287;-63
2021/04/08 05:20:40;;;;;;;14.17;7.50;;;2.30;90.20;;;;;;5069633;28;20214;-64
2021/04/08 05:23:06;;;;;;;13.07;7.40;;;2.30;80.50;;;;;;5071298;28;20199;-63
2021/04/08 05:25:32;;;;;;;13.43;7.27;;;2.30;78.20;;;;;;5069384;28;20270;-64
2021/04/08 05:27:57;;;;;;;11.83;7.73;;;2.40;76.40;;;;;;5071753;28;20208;-64
2021/04/08 05:30:23;;;;;;;11.57;7.57;;;2.40;66.50;;;;;;5071895;28;20211;-65
2021/04/08 05:32:49;;;;;;;11.93;7.53;;;2.40;55.60;;;;;;5075501;28;20188;-64
2021/04/08 05:35:14;;;;;;;10.13;6.37;;;2.50;47.80;;;;;;5072066;28;20438;-64
2021/04/08 05:37:40;;;;;;;12.13;7.00;;;2.50;48.70;;;;;;5070978;28;20218;-63
2021/04/08 05:40:06;;;;;;;11.63;6.50;;;2.60;41.90;;;;;;5068336;28;20198;-64
2021/04/08 05:42:32;;;;;;;13.10;7.30;;;2.50;45.30;;;;;;5069071;28;20224;-64
2021/04/08 05:44:57;;;;;;;11.80;6.30;;;2.60;30.80;;;;;;5071200;28;20237;-65
2021/04/08 05:47:23;;;;;;;10.23;5.63;;;2.60;27.80;;;;;;5067577;28;20185;-64
2021/04/08 05:49:49;;;;;;;11.87;6.00;;;2.60;11.50;;;;;;5070464;28;20182;-64
2021/04/08 05:52:14;;;;;;;8.23;5.10;;;2.60;15.10;;;;;;5069133;28;20194;-64
2021/04/08 05:54:40;;;;;;;8.50;4.73;;;2.60;10.70;;;;;;5070386;28;20193;-64
2021/04/08 05:57:05;;;;;;;8.90;5.13;;;2.60;5.70;;;;;;5071270;28;20196;-63
2021/04/08 05:59:31;;;;;;;9.33;5.50;;;2.60;2.40;;;;;;5069249;28;20227;-63
2021/04/08 06:01:57;;;;;;;6.67;4.40;;;2.70;1.00;;;;;;5081622;28;20470;-63
2021/04/08 06:04:22;;;;;;;7.53;4.73;;;2.70;1.00;;;;;;5074302;28;20179;-64
2021/04/08 06:06:48;;;;;;;9.83;4.10;;;2.80;1.00;;;;;;5076504;28;20195;-64
2021/04/08 06:09:13;;;;;;;5.10;3.70;;;2.90;1.00;;;;;;5068389;28;20689;-64
2021/04/08 06:11:39;;;;;;;4.63;3.40;;;3.00;1.00;;;;;;5069928;28;20259;-63
2021/04/08 06:14:04;;;;;;;6.20;3.83;;;3.10;1.00;;;;;;5069173;28;20185;-63
2021/04/08 06:16:30;;;;;;;8.63;4.60;;;3.10;1.00;;;;;;5069456;28;20192;-64
2021/04/08 06:18:56;;;;;;;5.93;4.50;;;3.20;1.00;;;;;;5070240;28;20185;-64
2021/04/08 06:21:21;;;;;;;6.90;4.13;;;3.30;1.00;;;;;;5068974;28;20563;-65
2021/04/08 06:23:47;;;;;;;9.00;4.33;;;3.30;1.00;;;;;;5069752;28;20293;-64
2021/04/08 06:26:12;;;;;;;7.13;3.53;;;3.30;1.00;;;;;;5068935;28;20173;-65
2021/04/08 06:28:38;;;;;;;4.40;3.90;;;3.30;1.00;;;;;;5069422;28;20655;-64
2021/04/08 06:31:03;;;;;;;5.33;3.80;;;3.50;1.00;;;;;;5073053;28;20193;-63
2021/04/08 06:33:29;;;;;;;6.07;3.90;;;3.50;1.00;;;;;;5069793;28;20169;-64
2021/04/08 06:35:55;;;;;;;6.00;3.50;;;3.60;1.00;;;;;;5069302;28;20184;-65
2021/04/08 06:38:20;;;;;;;7.95;4.07;;;3.70;1.00;;;;;;5069992;28;20192;-67
2021/04/08 06:40:46;;;;;;;8.83;3.83;;;3.80;1.00;;;;;;5061224;28;20209;-68
2021/04/08 06:43:13;;;;;;;5.70;4.07;;;3.80;1.00;;;;;;5056073;28;20188;-68
2021/04/08 06:45:45;;;;;;;8.65;3.80;;;3.80;99.90;;;;;;5060023;28;20204;-67
2021/04/08 06:48:19;;;;;;;7.57;4.78;;;3.80;99.90;;;;;;5068881;28;20174;-67
2021/04/08 06:50:47;;;;;;;9.35;4.78;;;3.90;99.90;;;;;;5069851;28;20170;-66
2021/04/08 06:53:13;;;;;;;8.43;4.55;;;3.90;99.90;;;;;;5068824;28;20181;-68
2021/04/08 06:55:41;;;;;;;9.18;4.20;;;3.90;99.90;;;;;;5069652;28;20185;-67
2021/04/08 06:58:07;;;;;;;8.32;4.80;;;4.00;99.90;;;;;;5068198;28;20268;-68
2021/04/08 07:00:34;;;;;;;6.18;4.40;;;3.90;1.00;;;;;;5069159;28;20296;-69
2021/04/08 07:03:01;;;;;;;7.05;4.50;;;4.00;1.00;;;;;;5069069;28;20243;-68
2021/04/08 07:05:27;;;;;;;7.45;4.65;;;4.00;1.00;;;;;;5069787;28;20872;-69
2021/04/08 07:07:52;;;;;;;6.47;4.10;;;4.00;71.20;;;;;;5067527;28;20231;-67
2021/04/08 07:10:18;;;;;;;7.90;4.47;;;3.90;1.00;;;;;;5069245;28;20181;-68
2021/04/08 07:12:44;;;;;;;9.30;4.80;;;4.00;1.00;;;;;;5068417;28;20530;-68
2021/04/08 07:15:10;;;;;;;10.13;5.53;;;4.00;1.00;;;;;;5069159;28;20575;-68
2021/04/08 07:17:36;;;;;;;12.05;5.40;;;4.10;1.00;;;;;;5067722;28;20188;-68
2021/04/08 07:20:03;;;;;;;5.37;4.17;;;4.20;90.80;;;;;;5070350;28;20517;-66
2021/04/08 07:22:29;;;;;;;7.68;4.70;;;4.30;1.00;;;;;;5070682;28;20237;-68
2021/04/08 07:24:55;;;;;;;8.80;4.00;;;4.30;99.90;;;;;;5068860;28;20223;-66
2021/04/08 07:27:23;;;;;;;4.73;4.23;;;4.40;1.00;;;;;;5067361;28;20449;-67
2021/04/08 07:30:00;;;;;;;9.38;4.47;;;4.60;99.90;;;;;;5067313;28;20944;-68
2021/04/08 07:32:33;;;;;;;9.50;4.35;;;4.70;99.90;;;;;;5065932;28;20181;-68
2021/04/08 07:35:16;;;;;;;7.50;4.00;;;4.60;1.00;;;;;;5065212;28;20234;-69
2021/04/08 07:37:43;;;;;;;6.90;4.75;;;4.70;1.00;;;;;;5065946;28;20208;-68
2021/04/08 07:40:19;;;;;;;9.95;5.30;;;4.80;99.90;;;;;;5066622;28;20177;-68
2021/04/08 07:42:45;;;;;;;8.13;5.13;;;4.90;1.00;;;;;;5066091;28;20208;-67
2021/04/08 07:45:33;;;;;;;7.90;5.30;;;5.00;99.90;;;;;;5067751;28;20170;-68
2021/04/08 07:48:04;;;;;;;8.85;6.22;;;4.90;1.00;;;;;;5067052;28;20173;-69
2021/04/08 07:50:31;;;;;;;6.47;5.85;;;5.00;99.90;;;;;;5067821;28;20170;-68
2021/04/08 07:52:58;;;;;;;13.00;6.57;;;5.00;1.00;;;;;;5066111;28;20182;-68
2021/04/08 07:55:35;;;;;;;7.93;5.75;;;4.90;1.00;;;;;;5074922;28;20189;-68
2021/04/08 07:58:02;;;;;;;7.53;4.82;;;5.00;99.90;;;;;;5067397;28;20192;-69
2021/04/08 08:00:32;;;;;;;8.30;5.07;;;4.80;99.90;;;;;;5066046;28;20180;-67
2021/04/08 08:03:02;;;;;;;9.02;5.97;;;4.70;99.90;;;;;;5067894;28;20185;-67
2021/04/08 08:05:36;;;;;;;7.63;5.18;;;4.60;99.90;;;;;;5067772;28;20181;-67
2021/04/08 08:08:15;;;;;;;7.07;5.05;;;4.50;1.00;;;;;;5067753;28;20260;-67
2021/04/08 08:10:56;;;;;;;9.32;5.07;;;4.70;1.00;;;;;;5066775;28;20885;-67
2021/04/08 08:13:32;;;;;;;11.13;4.90;;;4.80;1.00;;;;;;5066522;28;20184;-67
2021/04/08 08:15:59;;;;;;;7.80;5.20;;;4.80;99.90;;;;;;5063123;28;20188;-67
2021/04/08 08:18:33;;;;;;;12.43;5.00;;;4.90;99.90;;;;;;5055737;28;20200;-67
2021/04/08 08:21:04;;;;;;;6.90;4.32;;;5.10;99.90;;;;;;5067031;28;20197;-66
2021/04/08 08:23:39;;;;;;;7.30;4.10;;;5.30;1.00;;;;;;5064021;28;20189;-67
2021/04/08 08:26:32;;;;;;;5.30;4.40;;;5.50;1.00;;;;;;5068294;28;20534;-66
2021/04/08 08:29:12;;;;;;;10.25;4.45;;;5.50;1.00;;;;;;5058843;28;20725;-67
2021/04/08 08:31:44;;;;;;;8.13;5.13;;;5.60;99.90;;;;;;5068433;28;20691;-66
2021/04/08 08:34:12;;;;;;;6.35;4.78;;;5.60;99.90;;;;;;5067374;28;20230;-68
2021/04/08 08:36:39;;;;;;;6.10;5.50;;;5.60;1.00;;;;;;5068159;28;20162;-68
2021/04/08 08:39:07;;;;;;;8.02;5.20;;;5.80;99.90;;;;;;5066693;28;20541;-68
2021/04/08 08:41:34;;;;;;;8.98;4.32;;;5.90;99.90;;;;;;5065579;28;20278;-68
2021/04/08 08:44:03;;;;;;;7.70;5.40;;;5.90;99.90;;;;;;5067880;28;20640;-65
2021/04/08 08:46:29;;;;;;;6.57;5.10;;;5.70;99.90;;;;;;5066875;28;20260;-68
2021/04/08 08:48:58;;;;;;;8.15;5.20;;;5.80;99.90;;;;;;5065263;28;20615;-67
2021/04/08 08:51:25;;;;;;;5.72;4.70;;;6.20;99.90;;;;;;5071658;28;20201;-69
2021/04/08 08:53:53;;;;;;;4.35;3.95;;;6.70;99.90;;;;;;5074509;28;20183;-67
2021/04/08 08:56:22;;;;;;;6.70;4.25;;;7.10;1.00;;;;;;5073143;28;20189;-67
2021/04/08 08:58:48;;;;;;;4.25;3.92;;;6.90;1.00;;;;;;5076789;28;20647;-67
2021/04/08 09:01:14;;;;;;;6.00;4.70;;;6.50;1.00;;;;;;5071174;28;20235;-68
2021/04/08 09:03:40;;;;;;;6.07;4.60;;;6.40;1.00;;;;;;5070222;28;20435;-68
2021/04/08 09:06:07;;;;;;;4.67;3.90;;;6.30;1.00;;;;;;5069730;28;20212;-67
2021/04/08 09:08:35;;;;;;;4.70;3.95;;;6.20;1.00;;;;;;5070112;28;20238;-67
2021/04/08 09:11:01;;;;;;;5.00;4.10;;;5.90;1.00;;;;;;5070908;28;20718;-68
2021/04/08 09:13:26;;;;;;;4.43;3.60;;;5.70;1.00;;;;;;5069856;28;20185;-67
2021/04/08 09:15:52;;;;;;;5.80;4.03;;;5.50;1.00;;;;;;5072391;28;20196;-67
2021/04/08 09:18:21;;;;;;;5.30;3.37;;;5.60;1.00;;;;;;5075501;28;20290;-66
2021/04/08 09:20:48;;;;;;;6.00;4.15;;;5.70;1.00;;;;;;5070955;28;20209;-67
2021/04/08 09:23:17;;;;;;;5.13;3.85;;;5.80;1.00;;;;;;5072784;28;20173;-67
2021/04/08 09:25:46;;;;;;;5.68;4.25;;;6.30;1.00;;;;;;5072048;28;20912;-69
2021/04/08 09:28:14;;;;;;;7.18;3.65;;;7.20;1.00;;;;;;5072701;28;20196;-68
2021/04/08 09:31:20;;;;;;;5.50;3.85;;;7.60;1.00;;;;;;5072729;28;20172;-66
2021/04/08 09:33:48;;;;;;;4.35;3.95;;;7.60;1.00;;;;;;5070640;28;20195;-65
2021/04/08 09:36:23;;;;;;;4.50;4.15;;;7.10;1.00;;;;;;5072499;28;20177;-67
2021/04/08 09:39:12;;;;;;;6.05;4.43;;;6.50;1.00;;;;;;5071743;28;20190;-67
2021/04/08 09:41:53;;;;;;;4.50;4.10;;;6.60;1.00;;;;;;5070040;28;20207;-67
2021/04/08 09:44:21;;;;;;;5.22;4.72;;;7.40;1.00;;;;;;5066363;28;20159;-67
2021/04/08 09:46:53;;;;;;;5.10;4.27;;;8.50;1.00;;;;;;5080428;28;20191;-68
2021/04/08 09:49:45;;;;;;;5.40;4.20;;;9.40;99.90;;;;;;5067640;28;20431;-68
2021/04/08 09:52:13;;;;;;;4.10;3.70;;;9.60;99.90;;;;;;5070898;28;20449;-69
2021/04/08 09:54:46;;;;;;;3.87;3.57;;;9.70;99.90;;;;;;5070875;28;20446;-69
2021/04/08 09:57:32;;;;;;;4.00;3.20;;;9.40;99.90;;;;;;5071512;28;20437;-67
2021/04/08 09:59:58;;;;;;;4.10;3.80;;;9.10;99.90;;;;;;5071132;28;20418;-67
2021/04/08 10:02:26;;;;;;;4.30;3.90;;;9.40;99.90;;;;;;5070953;28;20472;-67
2021/04/08 10:05:10;;;;;;;4.10;3.77;;;10.20;99.90;;;;;;5070748;28;20423;-68
2021/04/08 10:07:48;;;;;;;4.33;3.93;;;10.70;99.90;;;;;;5070252;28;20414;-67
2021/04/08 10:10:14;;;;;;;4.73;4.33;;;11.70;99.90;;;;;;5070916;28;20453;-67
2021/04/08 10:12:40;;;;;;;8.10;4.03;;;11.60;99.90;;;;;;5068744;28;20451;-69
2021/04/08 10:15:06;;;;;;;8.37;4.20;;;11.10;99.90;;;;;;5066312;28;20208;-67
2021/04/08 10:17:36;;;;;;;5.33;4.13;;;10.30;99.90;;;;;;5065690;28;20264;-68
2021/04/08 10:20:03;;;;;;;3.83;3.53;;;9.70;99.90;;;;;;5066978;28;20538;-67
2021/04/08 10:22:37;;;;;;;3.60;3.30;;;9.50;99.90;;;;;;5068855;28;21015;-66
2021/04/08 10:25:03;;;;;;;4.20;3.33;;;10.30;99.90;;;;;;5069871;28;20419;-67
2021/04/08 10:27:29;;;;;;;3.10;2.90;;;11.20;99.90;;;;;;5069024;28;20914;-66
2021/04/08 10:29:54;;;;;;;3.63;3.23;;;12.20;99.90;;;;;;5070214;28;20419;-68
2021/04/08 10:32:31;;;;;;;4.17;3.37;;;12.90;99.90;;;;;;5069165;28;20180;-68
2021/04/08 10:34:57;;;;;;;3.70;3.20;;;12.80;99.90;;;;;;5069853;28;20537;-68
2021/04/08 10:37:23;;;;;;;4.43;3.33;;;12.50;99.90;;;;;;5067738;28;20431;-68
2021/04/08 10:39:48;;;;;;;3.57;3.27;;;11.80;99.90;;;;;;5068497;28;20196;-68
2021/04/08 10:42:14;;;;;;;4.50;3.37;;;11.40;99.90;;;;;;5069710;28;20217;-69
2021/04/08 10:44:47;;;;;;;4.43;3.60;;;11.20;99.90;;;;;;5069781;28;20177;-69
2021/04/08 10:47:15;;;;;;;4.73;3.20;;;12.10;99.90;;;;;;5076787;28;20427;-70
2021/04/08 10:49:49;;;;;;;4.10;3.37;;;13.00;99.90;;;;;;5069816;28;20773;-70
2021/04/08 10:52:19;;;;;;;3.97;3.67;;;13.20;99.90;;;;;;5056533;28;20481;-69
2021/04/08 10:54:49;;;;;;;2.87;2.67;;;13.10;99.90;;;;;;5069548;28;20427;-70
2021/04/08 10:57:16;;;;;;;4.17;3.17;;;12.30;99.90;;;;;;5074510;28;20540;-70
2021/04/08 10:59:43;;;;;;;3.27;2.97;;;11.90;99.90;;;;;;5070812;28;20515;-70
2021/04/08 11:02:36;;;;;;;2.97;2.67;;;11.80;99.90;;;;;;5051746;28;20476;-70
2021/04/08 11:05:06;;;;;;;2.80;2.60;;;10.80;99.90;;;;;;5079216;28;20529;-69
2021/04/08 11:07:36;;;;;;;7.87;2.70;;;10.90;99.90;;;;;;5072453;28;20427;-69
2021/04/08 11:10:21;;;;;;;3.20;3.00;;;11.50;99.90;;;;;;5066873;28;20431;-71
2021/04/08 11:12:51;;;;;;;3.47;3.20;;;12.20;99.90;;;;;;5069312;28;20412;-71
2021/04/08 11:15:21;;;;;;;3.40;3.20;;;12.60;99.90;;;;;;5069783;28;20507;-73
2021/04/08 11:17:50;;;;;;;4.40;4.00;;;13.60;99.90;;;;;;5068411;28;20414;-74
2021/04/08 11:20:26;;;;;;;4.07;3.77;;;14.30;99.90;;;;;;5068526;28;20921;-71
2021/04/08 11:22:51;;;;;;;4.17;3.80;;;15.10;99.90;;;;;;5067735;28;20761;-72
2021/04/08 11:25:18;;;;;;;4.20;3.70;;;14.20;99.90;;;;;;5067135;28;20434;-69
2021/04/08 11:27:44;;;;;;;4.10;3.73;;;13.00;99.90;;;;;;5067779;28;20502;-70
2021/04/08 11:30:37;;;;;;;5.37;4.07;;;11.90;99.90;;;;;;5067341;28;20428;-71
2021/04/08 11:33:07;;;;;;;5.70;5.17;;;11.10;99.90;;;;;;5053969;28;20438;-69
2021/04/08 11:35:36;;;;;;;6.57;5.50;;;9.80;99.90;;;;;;5064867;28;20440;-70
2021/04/08 11:38:11;;;;;;;5.27;4.77;;;8.90;99.90;;;;;;5065101;28;20410;-69
2021/04/08 11:40:38;;;;;;;5.40;4.50;;;8.30;99.90;;;;;;5063845;28;20552;-70
2021/04/08 11:43:29;;;;;;;3.85;3.55;;;8.00;99.90;;;;;;5063593;28;20442;-68
2021/04/08 11:46:00;;;;;;;4.22;3.90;;;7.80;99.90;;;;;;5070624;28;20216;-68
2021/04/08 11:48:38;;;;;;;4.50;4.10;;;7.60;99.90;;;;;;5067959;28;20239;-67
2021/04/08 11:51:05;;;;;;;3.30;3.10;;;8.00;99.90;;;;;;5077159;28;20419;-68
2021/04/08 11:53:38;;;;;;;3.70;3.40;;;9.00;99.90;;;;;;5071509;28;20954;-70
2021/04/08 11:56:22;;;;;;;3.80;3.50;;;10.00;99.90;;;;;;5069899;28;20926;-69
2021/04/08 11:58:47;;;;;;;4.13;3.73;;;10.40;99.90;;;;;;5049352;28;20412;-69
2021/04/08 12:01:15;;;;;;;3.73;3.43;;;10.80;99.90;;;;;;5061865;28;21200;-70
2021/04/08 12:03:43;;;;;;;3.63;3.33;;;11.60;99.90;;;;;;5068496;28;20188;-71
2021/04/08 12:06:10;;;;;;;3.90;3.60;;;12.20;99.90;;;;;;5089570;28;20405;-69
2021/04/08 12:08:39;;;;;;;4.23;3.93;;;12.20;99.90;;;;;;5076303;28;20426;-71
2021/04/08 12:11:06;;;;;;;3.93;3.63;;;12.60;99.90;;;;;;5068431;28;20741;-71
2021/04/08 12:13:31;;;;;;;3.83;3.63;;;12.90;99.90;;;;;;5063541;28;20485;-68
2021/04/08 12:15:57;;;;;;;4.63;4.33;;;13.30;99.90;;;;;;5067797;28;20407;-70
2021/04/08 12:18:29;;;;;;;4.30;4.00;;;13.70;99.90;;;;;;5069472;28;20202;-70
2021/04/08 12:20:56;;;;;;;4.50;3.60;;;13.80;99.90;;;;;;5067764;28;20193;-70
2021/04/08 12:23:33;;;;;;;4.07;3.53;;;13.90;99.90;;;;;;5070704;28;20396;-71
2021/04/08 12:25:59;;;;;;;3.93;3.53;;;14.30;99.90;;;;;;5073082;28;20493;-70
2021/04/08 12:28:26;;;;;;;4.03;3.63;;;13.80;99.90;;;;;;5071523;28;20509;-69
2021/04/08 12:31:02;;;;;;;4.60;4.20;;;12.90;99.90;;;;;;5073296;28;20790;-70
2021/04/08 12:33:35;;;;;;;5.70;4.93;;;11.90;99.90;;;;;;5073174;28;20831;-69
2021/04/08 12:36:06;;;;;;;5.67;5.27;;;11.00;99.90;;;;;;5066727;28;20423;-69
2021/04/08 12:38:32;;;;;;;5.30;4.90;;;9.90;99.90;;;;;;5071514;28;20476;-68
2021/04/08 12:40:59;;;;;;;5.23;4.80;;;9.20;99.90;;;;;;5072353;28;20454;-69
2021/04/08 12:43:25;;;;;;;4.87;4.40;;;8.90;99.90;;;;;;5071364;28;20418;-69
2021/04/08 12:45:51;;;;;;;4.53;4.23;;;8.70;99.90;;;;;;5072680;28;20407;-69
2021/04/08 12:48:17;;;;;;;4.30;4.00;;;8.70;99.90;;;;;;5072418;28;20782;-69
2021/04/08 12:50:44;;;;;;;4.37;3.97;;;8.60;99.90;;;;;;5072712;28;20407;-69
2021/04/08 12:53:11;;;;;;;4.70;4.30;;;8.80;99.90;;;;;;5074742;28;20519;-70
2021/04/08 12:55:38;;;;;;;4.83;4.27;;;9.20;99.90;;;;;;5077429;28;20776;-70
2021/04/08 12:58:04;;;;;;;4.27;3.97;;;9.40;99.90;;;;;;5075781;28;20423;-70
2021/04/08 13:00:30;;;;;;;4.47;4.07;;;9.80;99.90;;;;;;5082236;28;20433;-70
2021/04/08 13:02:56;;;;;;;4.43;4.03;;;10.40;99.90;;;;;;5069717;28;20498;-70
2021/04/08 13:05:23;;;;;;;4.40;4.00;;;10.70;99.90;;;;;;5055462;28;20420;-71
2021/04/08 13:07:50;;;;;;;4.70;4.37;;;11.20;99.90;;;;;;5054082;28;20454;-68